createdAt,value
2023-03-01T00:00:33.107Z,1014.71
2023-03-01T00:01:33.129Z,1014.69
2023-03-01T00:02:33.213Z,1014.71
2023-03-01T00:03:38.399Z,1014.64
2023-03-01T00:04:33.059Z,1014.69
2023-03-01T00:05:33.058Z,1014.70
2023-03-01T00:06:33.378Z,1014.64
2023-03-01T00:07:33.073Z,1014.70
2023-03-01T00:08:33.022Z,1014.64
2023-03-01T00:09:33.034Z,1014.68
2023-03-01T00:10:32.999Z,1014.66
2023-03-01T00:11:33.043Z,1014.62
2023-03-01T00:12:32.985Z,1014.62
2023-03-01T00:13:32.980Z,1014.56
2023-03-01T00:14:37.986Z,1014.57
2023-03-01T00:15:32.955Z,1014.62
2023-03-01T00:16:33.410Z,1014.66
2023-03-01T00:17:32.934Z,1014.62
2023-03-01T00:18:32.915Z,1014.65
2023-03-01T00:19:32.913Z,1014.63
2023-03-01T00:20:32.886Z,1014.71
2023-03-01T00:21:32.884Z,1014.67
2023-03-01T00:22:32.874Z,1014.67
2023-03-01T00:23:32.881Z,1014.69
2023-03-01T00:24:32.847Z,1014.70
2023-03-01T00:25:37.882Z,1014.74
2023-03-01T00:26:33.099Z,1014.67
2023-03-01T00:27:32.831Z,1014.75
2023-03-01T00:28:32.818Z,1014.72
2023-03-01T00:29:32.797Z,1014.69
2023-03-01T00:30:32.844Z,1014.70
2023-03-01T00:31:32.786Z,1014.71
2023-03-01T00:32:32.769Z,1014.76
2023-03-01T00:33:32.750Z,1014.74
2023-03-01T00:34:32.740Z,1014.70
2023-03-01T00:35:32.795Z,1014.70
2023-03-01T00:36:37.737Z,1014.76
2023-03-01T00:37:32.747Z,1014.70
2023-03-01T00:38:32.695Z,1014.71
2023-03-01T00:39:32.705Z,1014.65
2023-03-01T00:40:32.674Z,1014.72
2023-03-01T00:41:32.662Z,1014.72
2023-03-01T00:42:32.651Z,1014.71
2023-03-01T00:43:32.700Z,1014.80
2023-03-01T00:44:32.629Z,1014.72
2023-03-01T00:45:32.621Z,1014.81
2023-03-01T00:46:33.186Z,1014.79
2023-03-01T00:47:37.621Z,1014.79
2023-03-01T00:48:32.592Z,1014.76
2023-03-01T00:49:32.610Z,1014.83
2023-03-01T00:50:32.567Z,1014.84
2023-03-01T00:51:32.556Z,1014.75
2023-03-01T00:52:32.546Z,1014.81
2023-03-01T00:53:32.539Z,1014.83
2023-03-01T00:54:32.522Z,1014.78
2023-03-01T00:55:32.548Z,1014.85
2023-03-01T00:56:33.037Z,1014.78
2023-03-01T00:57:32.487Z,1014.81
2023-03-01T00:58:37.549Z,1014.85
2023-03-01T00:59:32.466Z,1014.83
2023-03-01T01:00:32.460Z,1014.82
2023-03-01T01:01:32.644Z,1014.83
2023-03-01T01:02:32.473Z,1014.81
2023-03-01T01:03:32.435Z,1014.75
2023-03-01T01:04:32.415Z,1014.71
2023-03-01T01:05:32.407Z,1014.74
2023-03-01T01:06:32.771Z,1014.63
2023-03-01T01:07:32.398Z,1014.63
2023-03-01T01:08:32.383Z,1014.54
2023-03-01T01:09:37.379Z,1014.57
2023-03-01T01:10:32.348Z,1014.55
2023-03-01T01:11:32.357Z,1014.52
2023-03-01T01:12:32.326Z,1014.55
2023-03-01T01:13:32.354Z,1014.52
2023-03-01T01:14:32.313Z,1014.53
2023-03-01T01:15:32.334Z,1014.53
2023-03-01T01:16:32.717Z,1014.48
2023-03-01T01:17:32.267Z,1014.54
2023-03-01T01:18:32.261Z,1014.44
2023-03-01T01:19:32.287Z,1014.44
2023-03-01T01:20:37.263Z,1014.45
2023-03-01T01:21:32.222Z,1014.48
2023-03-01T01:22:32.219Z,1014.46
2023-03-01T01:23:32.201Z,1014.45
2023-03-01T01:24:32.199Z,1014.42
2023-03-01T01:25:32.215Z,1014.48
2023-03-01T01:26:32.698Z,1014.42
2023-03-01T01:27:32.194Z,1014.42
2023-03-01T01:28:32.152Z,1014.34
2023-03-01T01:29:32.143Z,1014.32
2023-03-01T01:30:32.132Z,1014.38
2023-03-01T01:31:37.174Z,1014.35
2023-03-01T01:32:32.143Z,1014.27
2023-03-01T01:33:32.098Z,1014.29
2023-03-01T01:34:32.090Z,1014.30
2023-03-01T01:35:32.105Z,1014.33
2023-03-01T01:36:32.513Z,1014.25
2023-03-01T01:37:32.098Z,1014.23
2023-03-01T01:38:32.041Z,1014.18
2023-03-01T01:39:32.040Z,1014.17
2023-03-01T01:40:32.024Z,1014.13
2023-03-01T01:41:32.001Z,1014.09
2023-03-01T01:42:37.044Z,1014.04
2023-03-01T01:43:32.071Z,1013.98
2023-03-01T01:44:31.981Z,1013.97
2023-03-01T01:45:31.959Z,1014.06
2023-03-01T01:46:32.537Z,1013.95
2023-03-01T01:47:31.936Z,1013.99
2023-03-01T01:48:31.925Z,1014.01
2023-03-01T01:49:31.964Z,1014.04
2023-03-01T01:50:31.912Z,1013.97
2023-03-01T01:51:31.893Z,1013.98
2023-03-01T01:52:31.885Z,1013.98
2023-03-01T01:53:36.898Z,1013.98
2023-03-01T01:54:31.869Z,1013.94
2023-03-01T01:55:31.856Z,1013.97
2023-03-01T01:56:32.149Z,1013.94
2023-03-01T01:57:31.828Z,1013.92
2023-03-01T01:58:31.843Z,1013.99
2023-03-01T01:59:31.816Z,1013.91
2023-03-01T02:00:31.809Z,1013.91
2023-03-01T02:01:31.812Z,1013.87
2023-03-01T02:02:31.890Z,1013.91
2023-03-01T02:03:31.891Z,1013.88
2023-03-01T02:04:36.780Z,1013.95
2023-03-01T02:05:31.763Z,1013.95
2023-03-01T02:06:32.118Z,1013.91
2023-03-01T02:07:31.732Z,1013.94
2023-03-01T02:08:31.723Z,1013.87
2023-03-01T02:09:31.705Z,1013.87
2023-03-01T02:10:31.683Z,1013.86
2023-03-01T02:11:31.686Z,1013.88
2023-03-01T02:12:31.667Z,1013.83
2023-03-01T02:13:31.675Z,1013.82
2023-03-01T02:14:31.679Z,1013.76
2023-03-01T02:15:36.685Z,1013.75
2023-03-01T02:16:32.055Z,1013.68
2023-03-01T02:17:31.615Z,1013.74
2023-03-01T02:18:31.604Z,1013.77
2023-03-01T02:19:31.634Z,1013.77
2023-03-01T02:20:31.583Z,1013.76
2023-03-01T02:21:31.564Z,1013.80
2023-03-01T02:22:31.580Z,1013.75
2023-03-01T02:23:31.541Z,1013.76
2023-03-01T02:24:31.546Z,1013.76
2023-03-01T02:25:31.541Z,1013.73
2023-03-01T02:26:36.535Z,1013.71
2023-03-01T02:27:31.496Z,1013.72
2023-03-01T02:28:31.488Z,1013.70
2023-03-01T02:29:31.497Z,1013.70
2023-03-01T02:30:31.507Z,1013.67
2023-03-01T02:31:31.502Z,1013.74
2023-03-01T02:32:31.444Z,1013.71
2023-03-01T02:33:31.435Z,1013.68
2023-03-01T02:34:31.428Z,1013.72
2023-03-01T02:35:31.460Z,1013.70
2023-03-01T02:36:31.840Z,1013.66
2023-03-01T02:37:36.442Z,1013.61
2023-03-01T02:38:31.379Z,1013.64
2023-03-01T02:39:31.367Z,1013.58
2023-03-01T02:40:31.371Z,1013.63
2023-03-01T02:41:31.347Z,1013.56
2023-03-01T02:42:31.339Z,1013.69
2023-03-01T02:43:31.373Z,1013.61
2023-03-01T02:44:31.312Z,1013.57
2023-03-01T02:45:31.316Z,1013.62
2023-03-01T02:46:31.710Z,1013.59
2023-03-01T02:47:31.288Z,1013.59
2023-03-01T02:48:36.299Z,1013.60
2023-03-01T02:49:31.284Z,1013.58
2023-03-01T02:50:31.277Z,1013.48
2023-03-01T02:51:31.247Z,1013.49
2023-03-01T02:52:31.224Z,1013.48
2023-03-01T02:53:31.214Z,1013.49
2023-03-01T02:54:31.203Z,1013.41
2023-03-01T02:55:31.228Z,1013.43
2023-03-01T02:56:31.562Z,1013.48
2023-03-01T02:57:31.168Z,1013.45
2023-03-01T02:58:31.163Z,1013.45
2023-03-01T02:59:36.174Z,1013.33
2023-03-01T03:00:31.341Z,1013.33
2023-03-01T03:01:31.163Z,1013.34
2023-03-01T03:02:31.137Z,1013.30
2023-03-01T03:03:31.171Z,1013.25
2023-03-01T03:04:31.095Z,1013.20
2023-03-01T03:05:31.092Z,1013.24
2023-03-01T03:06:31.455Z,1013.25
2023-03-01T03:07:31.082Z,1013.27
2023-03-01T03:08:31.075Z,1013.28
2023-03-01T03:09:31.045Z,1013.19
2023-03-01T03:10:36.060Z,1013.19
2023-03-01T03:11:31.016Z,1013.20
2023-03-01T03:12:31.007Z,1013.13
2023-03-01T03:13:31.015Z,1013.12
2023-03-01T03:14:30.991Z,1013.18
2023-03-01T03:15:30.990Z,1013.12
2023-03-01T03:16:31.335Z,1013.07
2023-03-01T03:17:30.953Z,1013.15
2023-03-01T03:18:30.963Z,1013.12
2023-03-01T03:19:30.937Z,1013.17
2023-03-01T03:20:30.928Z,1013.15
2023-03-01T03:21:35.929Z,1013.14
2023-03-01T03:22:30.907Z,1013.08
2023-03-01T03:23:30.889Z,1013.16
2023-03-01T03:24:30.877Z,1013.18
2023-03-01T03:25:30.915Z,1013.14
2023-03-01T03:26:31.303Z,1013.18
2023-03-01T03:27:30.840Z,1013.12
2023-03-01T03:28:30.830Z,1013.11
2023-03-01T03:29:30.826Z,1013.07
2023-03-01T03:30:30.814Z,1013.03
2023-03-01T03:31:30.845Z,1013.06
2023-03-01T03:32:35.809Z,1013.03
2023-03-01T03:33:30.780Z,1013.01
2023-03-01T03:34:30.788Z,1012.96
2023-03-01T03:35:30.857Z,1012.94
2023-03-01T03:36:30.935Z,1012.94
2023-03-01T03:37:30.762Z,1012.87
2023-03-01T03:38:30.719Z,1013.02
2023-03-01T03:39:30.707Z,1013.01
2023-03-01T03:40:30.702Z,1013.00
2023-03-01T03:41:30.696Z,1012.98
2023-03-01T03:42:30.677Z,1012.97
2023-03-01T03:43:35.734Z,1012.99
2023-03-01T03:44:30.654Z,1012.97
2023-03-01T03:45:30.666Z,1012.99
2023-03-01T03:46:30.630Z,1013.00
2023-03-01T03:47:30.621Z,1012.97
2023-03-01T03:48:30.618Z,1012.99
2023-03-01T03:49:30.615Z,1012.99
2023-03-01T03:50:30.607Z,1013.00
2023-03-01T03:51:30.577Z,1012.88
2023-03-01T03:52:30.603Z,1012.93
2023-03-01T03:53:30.586Z,1012.85
2023-03-01T03:54:35.566Z,1012.90
2023-03-01T03:55:30.562Z,1012.90
2023-03-01T03:56:30.937Z,1012.89
2023-03-01T03:57:30.517Z,1012.90
2023-03-01T03:58:30.518Z,1012.85
2023-03-01T03:59:30.492Z,1012.88
2023-03-01T04:00:30.478Z,1012.91
2023-03-01T04:01:30.545Z,1012.89
2023-03-01T04:02:30.500Z,1012.89
2023-03-01T04:03:30.457Z,1012.85
2023-03-01T04:04:30.434Z,1012.90
2023-03-01T04:05:35.493Z,1012.91
2023-03-01T04:06:30.772Z,1012.90
2023-03-01T04:07:30.417Z,1012.92
2023-03-01T04:08:30.406Z,1012.85
2023-03-01T04:09:30.383Z,1012.83
2023-03-01T04:10:30.368Z,1012.85
2023-03-01T04:11:30.370Z,1012.82
2023-03-01T04:12:30.346Z,1012.78
2023-03-01T04:13:30.374Z,1012.79
2023-03-01T04:14:30.325Z,1012.79
2023-03-01T04:15:30.313Z,1012.78
2023-03-01T04:16:35.376Z,1012.80
2023-03-01T04:17:30.292Z,1012.79
2023-03-01T04:18:30.311Z,1012.79
2023-03-01T04:19:30.279Z,1012.84
2023-03-01T04:20:30.264Z,1012.88
2023-03-01T04:21:30.269Z,1012.82
2023-03-01T04:22:30.265Z,1012.84
2023-03-01T04:23:30.228Z,1012.87
2023-03-01T04:24:30.261Z,1012.86
2023-03-01T04:25:30.202Z,1012.90
2023-03-01T04:26:30.533Z,1012.86
2023-03-01T04:27:35.205Z,1012.84
2023-03-01T04:28:30.177Z,1012.86
2023-03-01T04:29:30.174Z,1012.93
2023-03-01T04:30:30.173Z,1012.90
2023-03-01T04:31:30.232Z,1012.90
2023-03-01T04:32:30.165Z,1012.89
2023-03-01T04:33:30.118Z,1012.90
2023-03-01T04:34:30.117Z,1012.86
2023-03-01T04:35:30.182Z,1012.88
2023-03-01T04:36:30.865Z,1012.91
2023-03-01T04:37:30.094Z,1012.89
2023-03-01T04:38:35.092Z,1012.89
2023-03-01T04:39:30.061Z,1012.91
2023-03-01T04:40:30.039Z,1012.92
2023-03-01T04:41:30.029Z,1012.94
2023-03-01T04:42:30.038Z,1012.91
2023-03-01T04:43:30.009Z,1012.89
2023-03-01T04:44:30.006Z,1012.97
2023-03-01T04:45:29.986Z,1012.96
2023-03-01T04:46:30.439Z,1012.93
2023-03-01T04:47:29.962Z,1012.93
2023-03-01T04:48:29.960Z,1012.93
2023-03-01T04:49:34.993Z,1012.97
2023-03-01T04:50:29.933Z,1012.98
2023-03-01T04:51:29.919Z,1012.97
2023-03-01T04:52:29.908Z,1012.95
2023-03-01T04:53:29.916Z,1012.92
2023-03-01T04:54:29.924Z,1012.93
2023-03-01T04:55:29.887Z,1012.93
2023-03-01T04:56:30.289Z,1012.89
2023-03-01T04:57:29.852Z,1012.89
2023-03-01T04:58:29.855Z,1012.94
2023-03-01T04:59:29.848Z,1012.94
2023-03-01T05:00:34.864Z,1012.90
2023-03-01T05:01:29.819Z,1012.94
2023-03-01T05:02:29.863Z,1012.95
2023-03-01T05:03:29.790Z,1012.96
2023-03-01T05:04:29.884Z,1012.91
2023-03-01T05:05:29.777Z,1012.93
2023-03-01T05:06:30.122Z,1012.93
2023-03-01T05:07:29.756Z,1012.91
2023-03-01T05:08:29.738Z,1012.89
2023-03-01T05:09:29.770Z,1012.89
2023-03-01T05:10:29.718Z,1012.90
2023-03-01T05:11:34.723Z,1012.84
2023-03-01T05:12:29.764Z,1012.88
2023-03-01T05:13:29.689Z,1012.86
2023-03-01T05:14:29.673Z,1012.86
2023-03-01T05:15:29.875Z,1012.90
2023-03-01T05:16:29.981Z,1012.89
2023-03-01T05:17:29.634Z,1012.79
2023-03-01T05:18:29.684Z,1012.78
2023-03-01T05:19:29.623Z,1012.78
2023-03-01T05:20:29.708Z,1012.80
2023-03-01T05:21:29.592Z,1012.78
2023-03-01T05:22:34.600Z,1012.79
2023-03-01T05:23:29.601Z,1012.84
2023-03-01T05:24:29.608Z,1012.77
2023-03-01T05:25:29.568Z,1012.83
2023-03-01T05:26:29.539Z,1012.74
2023-03-01T05:27:29.524Z,1012.78
2023-03-01T05:28:29.522Z,1012.79
2023-03-01T05:29:29.515Z,1012.85
2023-03-01T05:30:29.510Z,1012.74
2023-03-01T05:31:29.638Z,1012.81
2023-03-01T05:32:29.467Z,1012.71
2023-03-01T05:33:34.480Z,1012.78
2023-03-01T05:34:29.466Z,1012.77
2023-03-01T05:35:29.462Z,1012.73
2023-03-01T05:36:29.858Z,1012.82
2023-03-01T05:37:29.414Z,1012.86
2023-03-01T05:38:29.407Z,1012.84
2023-03-01T05:39:29.406Z,1012.83
2023-03-01T05:40:29.386Z,1012.83
2023-03-01T05:41:29.504Z,1012.85
2023-03-01T05:42:29.397Z,1012.88
2023-03-01T05:43:29.357Z,1012.88
2023-03-01T05:44:34.369Z,1012.83
2023-03-01T05:45:29.343Z,1012.85
2023-03-01T05:46:29.547Z,1012.91
2023-03-01T05:47:29.318Z,1012.86
2023-03-01T05:48:29.314Z,1012.86
2023-03-01T05:49:29.297Z,1012.82
2023-03-01T05:50:29.328Z,1012.79
2023-03-01T05:51:29.264Z,1012.86
2023-03-01T05:52:29.256Z,1012.81
2023-03-01T05:53:29.241Z,1012.76
2023-03-01T05:54:29.277Z,1012.74
2023-03-01T05:55:34.250Z,1012.74
2023-03-01T05:56:29.637Z,1012.75
2023-03-01T05:57:29.216Z,1012.83
2023-03-01T05:58:29.189Z,1012.78
2023-03-01T05:59:29.186Z,1012.80
2023-03-01T06:00:29.186Z,1012.77
2023-03-01T06:01:29.154Z,1012.82
2023-03-01T06:02:29.147Z,1012.75
2023-03-01T06:03:29.140Z,1012.72
2023-03-01T06:04:29.205Z,1012.73
2023-03-01T06:05:29.185Z,1012.77
2023-03-01T06:06:34.515Z,1012.81
2023-03-01T06:07:29.109Z,1012.74
2023-03-01T06:08:29.087Z,1012.80
2023-03-01T06:09:29.077Z,1012.85
2023-03-01T06:10:29.055Z,1012.78
2023-03-01T06:11:29.049Z,1012.80
2023-03-01T06:12:29.052Z,1012.80
2023-03-01T06:13:29.059Z,1012.84
2023-03-01T06:14:29.024Z,1012.79
2023-03-01T06:15:29.062Z,1012.81
2023-03-01T06:16:29.506Z,1012.83
2023-03-01T06:17:34.005Z,1012.83
2023-03-01T06:18:29.003Z,1012.88
2023-03-01T06:19:28.972Z,1012.82
2023-03-01T06:20:29.061Z,1012.84
2023-03-01T06:21:28.938Z,1012.79
2023-03-01T06:22:28.927Z,1012.77
2023-03-01T06:23:28.915Z,1012.84
2023-03-01T06:24:28.943Z,1012.79
2023-03-01T06:25:28.910Z,1012.77
2023-03-01T06:26:29.348Z,1012.79
2023-03-01T06:27:28.880Z,1012.80
2023-03-01T06:28:33.924Z,1012.78
2023-03-01T06:29:28.869Z,1012.86
2023-03-01T06:30:28.871Z,1012.86
2023-03-01T06:31:28.894Z,1012.75
2023-03-01T06:32:28.832Z,1012.79
2023-03-01T06:33:28.804Z,1012.82
2023-03-01T06:34:28.817Z,1012.80
2023-03-01T06:35:28.785Z,1012.77
2023-03-01T06:36:29.134Z,1012.77
2023-03-01T06:37:28.764Z,1012.81
2023-03-01T06:38:28.772Z,1012.85
2023-03-01T06:39:33.772Z,1012.80
2023-03-01T06:40:28.738Z,1012.82
2023-03-01T06:41:28.724Z,1012.77
2023-03-01T06:42:28.728Z,1012.78
2023-03-01T06:43:28.697Z,1012.73
2023-03-01T06:44:28.728Z,1012.84
2023-03-01T06:45:28.685Z,1012.71
2023-03-01T06:46:28.999Z,1012.74
2023-03-01T06:47:28.659Z,1012.69
2023-03-01T06:48:28.664Z,1012.71
2023-03-01T06:49:28.655Z,1012.71
2023-03-01T06:50:33.689Z,1012.73
2023-03-01T06:51:28.610Z,1012.71
2023-03-01T06:52:28.614Z,1012.75
2023-03-01T06:53:28.590Z,1012.72
2023-03-01T06:54:28.604Z,1012.73
2023-03-01T06:55:28.572Z,1012.69
2023-03-01T06:56:28.815Z,1012.73
2023-03-01T06:57:28.555Z,1012.63
2023-03-01T06:58:28.528Z,1012.74
2023-03-01T06:59:28.525Z,1012.70
2023-03-01T07:00:28.560Z,1012.74
2023-03-01T07:01:33.539Z,1012.74
2023-03-01T07:02:28.550Z,1012.75
2023-03-01T07:03:28.470Z,1012.73
2023-03-01T07:04:28.459Z,1012.73
2023-03-01T07:05:28.467Z,1012.72
2023-03-01T07:06:28.794Z,1012.70
2023-03-01T07:07:28.428Z,1012.65
2023-03-01T07:08:28.415Z,1012.66
2023-03-01T07:09:28.414Z,1012.71
2023-03-01T07:10:28.408Z,1012.64
2023-03-01T07:11:28.386Z,1012.67
2023-03-01T07:12:33.438Z,1012.68
2023-03-01T07:13:28.361Z,1012.67
2023-03-01T07:14:28.349Z,1012.67
2023-03-01T07:15:28.362Z,1012.72
2023-03-01T07:16:28.459Z,1012.62
2023-03-01T07:17:28.324Z,1012.66
2023-03-01T07:18:28.364Z,1012.63
2023-03-01T07:19:28.300Z,1012.64
2023-03-01T07:20:28.297Z,1012.61
2023-03-01T07:21:28.276Z,1012.57
2023-03-01T07:22:28.282Z,1012.58
2023-03-01T07:23:33.281Z,1012.60
2023-03-01T07:24:28.290Z,1012.53
2023-03-01T07:25:28.246Z,1012.51
2023-03-01T07:26:28.614Z,1012.54
2023-03-01T07:27:28.215Z,1012.58
2023-03-01T07:28:28.211Z,1012.57
2023-03-01T07:29:28.187Z,1012.54
2023-03-01T07:30:28.329Z,1012.58
2023-03-01T07:31:28.171Z,1012.53
2023-03-01T07:32:28.279Z,1012.57
2023-03-01T07:33:28.150Z,1012.55
2023-03-01T07:34:33.164Z,1012.55
2023-03-01T07:35:28.226Z,1012.61
2023-03-01T07:36:28.151Z,1012.59
2023-03-01T07:37:28.100Z,1012.57
2023-03-01T07:38:28.089Z,1012.50
2023-03-01T07:39:28.082Z,1012.54
2023-03-01T07:40:28.199Z,1012.44
2023-03-01T07:41:28.058Z,1012.40
2023-03-01T07:42:28.079Z,1012.45
2023-03-01T07:43:28.034Z,1012.40
2023-03-01T07:44:28.030Z,1012.39
2023-03-01T07:45:33.060Z,1012.40
2023-03-01T07:46:28.006Z,1012.43
2023-03-01T07:47:27.998Z,1012.46
2023-03-01T07:48:28.001Z,1012.40
2023-03-01T07:49:27.969Z,1012.44
2023-03-01T07:50:28.109Z,1012.41
2023-03-01T07:51:27.946Z,1012.49
2023-03-01T07:52:27.935Z,1012.44
2023-03-01T07:53:27.926Z,1012.47
2023-03-01T07:54:27.921Z,1012.45
2023-03-01T07:55:27.920Z,1012.53
2023-03-01T07:56:33.131Z,1012.44
2023-03-01T07:57:27.887Z,1012.47
2023-03-01T07:58:27.871Z,1012.44
2023-03-01T07:59:27.860Z,1012.38
2023-03-01T08:00:27.965Z,1012.37
2023-03-01T08:01:27.894Z,1012.44
2023-03-01T08:02:27.828Z,1012.39
2023-03-01T08:03:27.815Z,1012.39
2023-03-01T08:04:27.864Z,1012.39
2023-03-01T08:05:27.807Z,1012.31
2023-03-01T08:06:27.798Z,1012.31
2023-03-01T08:07:32.793Z,1012.25
2023-03-01T08:08:27.762Z,1012.29
2023-03-01T08:09:27.751Z,1012.26
2023-03-01T08:10:27.751Z,1012.24
2023-03-01T08:11:27.738Z,1012.20
2023-03-01T08:12:27.735Z,1012.17
2023-03-01T08:13:27.710Z,1012.20
2023-03-01T08:14:27.696Z,1012.17
2023-03-01T08:15:27.692Z,1012.15
2023-03-01T08:16:27.709Z,1012.15
2023-03-01T08:17:27.659Z,1012.14
2023-03-01T08:18:32.724Z,1012.14
2023-03-01T08:19:27.638Z,1012.19
2023-03-01T08:20:27.654Z,1012.12
2023-03-01T08:21:27.657Z,1012.13
2023-03-01T08:22:27.605Z,1012.13
2023-03-01T08:23:27.598Z,1012.08
2023-03-01T08:24:27.611Z,1012.11
2023-03-01T08:25:27.591Z,1012.11
2023-03-01T08:26:27.577Z,1012.11
2023-03-01T08:27:27.558Z,1012.11
2023-03-01T08:28:27.537Z,1012.14
2023-03-01T08:29:32.551Z,1012.10
2023-03-01T08:30:27.550Z,1012.09
2023-03-01T08:31:27.567Z,1012.10
2023-03-01T08:32:27.522Z,1012.13
2023-03-01T08:33:27.528Z,1012.18
2023-03-01T08:34:27.478Z,1012.20
2023-03-01T08:35:27.506Z,1012.18
2023-03-01T08:36:27.473Z,1012.18
2023-03-01T08:37:27.449Z,1012.16
2023-03-01T08:38:27.430Z,1012.15
2023-03-01T08:39:27.501Z,1012.11
2023-03-01T08:40:32.434Z,1012.21
2023-03-01T08:41:27.392Z,1012.20
2023-03-01T08:42:27.399Z,1012.10
2023-03-01T08:43:27.372Z,1012.15
2023-03-01T08:44:27.367Z,1012.11
2023-03-01T08:45:27.360Z,1012.11
2023-03-01T08:46:27.338Z,1012.10
2023-03-01T08:47:27.347Z,1012.06
2023-03-01T08:48:27.336Z,1012.14
2023-03-01T08:49:27.305Z,1012.00
2023-03-01T08:50:27.300Z,1012.12
2023-03-01T08:51:32.333Z,1012.09
2023-03-01T08:52:27.272Z,1012.10
2023-03-01T08:53:27.285Z,1011.98
2023-03-01T08:54:27.248Z,1011.98
2023-03-01T08:55:27.246Z,1011.97
2023-03-01T08:56:27.229Z,1012.05
2023-03-01T08:57:27.216Z,1011.96
2023-03-01T08:58:27.208Z,1012.00
2023-03-01T08:59:27.208Z,1011.99
2023-03-01T09:00:27.197Z,1012.04
2023-03-01T09:01:27.176Z,1012.04
2023-03-01T09:02:32.213Z,1011.99
2023-03-01T09:03:27.150Z,1011.96
2023-03-01T09:04:27.137Z,1011.96
2023-03-01T09:05:27.171Z,1011.89
2023-03-01T09:06:27.118Z,1011.90
2023-03-01T09:07:27.142Z,1011.87
2023-03-01T09:08:27.152Z,1011.84
2023-03-01T09:09:27.084Z,1011.86
2023-03-01T09:10:27.083Z,1011.88
2023-03-01T09:11:27.080Z,1011.86
2023-03-01T09:12:27.049Z,1011.82
2023-03-01T09:13:32.093Z,1011.86
2023-03-01T09:14:27.026Z,1011.82
2023-03-01T09:15:27.038Z,1011.69
2023-03-01T09:16:27.084Z,1011.75
2023-03-01T09:17:27.021Z,1011.71
2023-03-01T09:18:26.986Z,1011.72
2023-03-01T09:19:27.517Z,1011.69
2023-03-01T09:20:27.010Z,1011.71
2023-03-01T09:21:39.747Z,1011.75
2023-03-01T09:22:27.942Z,1011.77
2023-03-01T09:23:26.952Z,1011.79
2023-03-01T09:24:31.940Z,1011.80
2023-03-01T09:25:26.918Z,1011.85
2023-03-01T09:26:26.913Z,1011.76
2023-03-01T09:27:26.885Z,1011.72
2023-03-01T09:28:30.136Z,1011.79
2023-03-01T09:29:26.901Z,1011.79
2023-03-01T09:30:26.866Z,1011.78
2023-03-01T09:31:26.847Z,1011.82
2023-03-01T09:32:26.971Z,1011.73
2023-03-01T09:33:26.818Z,1011.67
2023-03-01T09:34:26.817Z,1011.72
2023-03-01T09:35:31.884Z,1011.66
2023-03-01T09:36:26.798Z,1011.77
2023-03-01T09:37:26.770Z,1011.72
2023-03-01T09:38:27.116Z,1011.78
2023-03-01T09:39:26.776Z,1011.82
2023-03-01T09:40:26.757Z,1011.75
2023-03-01T09:41:26.745Z,1011.75
2023-03-01T09:42:26.722Z,1011.75
2023-03-01T09:43:26.705Z,1011.73
2023-03-01T09:44:26.699Z,1011.78
2023-03-01T09:45:26.699Z,1011.72
2023-03-01T09:46:32.080Z,1011.77
2023-03-01T09:47:26.692Z,1011.78
2023-03-01T09:48:26.654Z,1011.76
2023-03-01T09:49:26.646Z,1011.84
2023-03-01T09:50:26.640Z,1011.76
2023-03-01T09:51:26.628Z,1011.72
2023-03-01T09:52:26.611Z,1011.76
2023-03-01T09:53:26.608Z,1011.76
2023-03-01T09:54:26.587Z,1011.76
2023-03-01T09:55:26.591Z,1011.77
2023-03-01T09:56:26.574Z,1011.78
2023-03-01T09:57:31.570Z,1011.77
2023-03-01T09:58:26.543Z,1011.75
2023-03-01T09:59:26.542Z,1011.72
2023-03-01T10:00:26.515Z,1011.67
2023-03-01T10:01:26.518Z,1011.67
2023-03-01T10:02:26.504Z,1011.72
2023-03-01T10:03:26.557Z,1011.61
2023-03-01T10:04:26.524Z,1011.66
2023-03-01T10:05:26.462Z,1011.66
2023-03-01T10:06:34.994Z,1011.61
2023-03-01T10:07:27.469Z,1011.58
2023-03-01T10:08:31.452Z,1011.53
2023-03-01T10:09:26.415Z,1011.65
2023-03-01T10:10:26.405Z,1011.60
2023-03-01T10:11:26.422Z,1011.56
2023-03-01T10:12:26.392Z,1011.50
2023-03-01T10:13:26.373Z,1011.52
2023-03-01T10:14:26.361Z,1011.59
2023-03-01T10:15:26.354Z,1011.51
2023-03-01T10:16:26.357Z,1011.48
2023-03-01T10:17:26.340Z,1011.51
2023-03-01T10:18:26.345Z,1011.46
2023-03-01T10:19:31.328Z,1011.42
2023-03-01T10:20:26.295Z,1011.42
2023-03-01T10:21:26.281Z,1011.41
2023-03-01T10:22:26.281Z,1011.45
2023-03-01T10:23:26.258Z,1011.40
2023-03-01T10:24:26.270Z,1011.48
2023-03-01T10:25:26.236Z,1011.44
2023-03-01T10:26:26.241Z,1011.40
2023-03-01T10:27:26.250Z,1011.42
2023-03-01T10:28:26.217Z,1011.45
2023-03-01T10:29:26.196Z,1011.42
2023-03-01T10:30:31.225Z,1011.49
2023-03-01T10:31:26.227Z,1011.37
2023-03-01T10:32:26.229Z,1011.36
2023-03-01T10:33:26.152Z,1011.37
2023-03-01T10:34:26.142Z,1011.29
2023-03-01T10:35:26.129Z,1011.24
2023-03-01T10:36:26.142Z,1011.19
2023-03-01T10:37:26.104Z,1011.20
2023-03-01T10:38:26.095Z,1011.25
2023-03-01T10:39:26.085Z,1011.21
2023-03-01T10:40:26.074Z,1011.21
2023-03-01T10:41:31.414Z,1011.24
2023-03-01T10:42:26.076Z,1011.17
2023-03-01T10:43:26.061Z,1011.21
2023-03-01T10:44:26.031Z,1011.09
2023-03-01T10:45:26.789Z,1011.09
2023-03-01T10:46:26.075Z,1011.23
2023-03-01T10:47:26.012Z,1011.19
2023-03-01T10:48:26.022Z,1011.13
2023-03-01T10:49:25.975Z,1011.09
2023-03-01T10:50:25.962Z,1011.06
2023-03-01T10:51:25.959Z,1011.03
2023-03-01T10:52:30.965Z,1011.01
2023-03-01T10:53:25.935Z,1011.05
2023-03-01T10:54:25.927Z,1011.02
2023-03-01T10:55:25.902Z,1011.06
2023-03-01T10:56:25.903Z,1011.13
2023-03-01T10:57:25.882Z,1010.98
2023-03-01T10:58:25.870Z,1010.94
2023-03-01T10:59:25.888Z,1011.04
2023-03-01T11:00:25.905Z,1010.97
2023-03-01T11:01:25.896Z,1010.98
2023-03-01T11:02:26.165Z,1010.87
2023-03-01T11:03:30.845Z,1010.90
2023-03-01T11:04:25.828Z,1010.89
2023-03-01T11:05:25.796Z,1010.84
2023-03-01T11:06:25.818Z,1010.86
2023-03-01T11:07:25.773Z,1010.78
2023-03-01T11:08:25.760Z,1010.79
2023-03-01T11:09:25.749Z,1010.85
2023-03-01T11:10:25.739Z,1010.80
2023-03-01T11:11:25.797Z,1010.73
2023-03-01T11:12:25.762Z,1010.74
2023-03-01T11:13:25.703Z,1010.78
2023-03-01T11:14:30.767Z,1010.79
2023-03-01T11:15:25.684Z,1010.75
2023-03-01T11:16:25.779Z,1010.72
2023-03-01T11:17:25.671Z,1010.69
2023-03-01T11:18:40.646Z,1010.74
2023-03-01T11:19:25.641Z,1010.70
2023-03-01T11:20:26.962Z,1010.66
2023-03-01T11:21:25.617Z,1010.63
2023-03-01T11:22:25.669Z,1010.56
2023-03-01T11:23:25.591Z,1010.52
2023-03-01T11:24:25.601Z,1010.64
2023-03-01T11:25:30.597Z,1010.56
2023-03-01T11:26:25.558Z,1010.58
2023-03-01T11:27:25.568Z,1010.56
2023-03-01T11:28:27.344Z,1010.51
2023-03-01T11:29:25.539Z,1010.36
2023-03-01T11:30:25.562Z,1010.24
2023-03-01T11:31:25.602Z,1010.31
2023-03-01T11:32:25.664Z,1010.33
2023-03-01T11:33:25.476Z,1010.28
2023-03-01T11:34:25.466Z,1010.30
2023-03-01T11:35:25.456Z,1010.21
2023-03-01T11:36:30.492Z,1010.22
2023-03-01T11:37:25.462Z,1010.23
2023-03-01T11:38:25.451Z,1010.32
2023-03-01T11:39:25.412Z,1010.38
2023-03-01T11:40:25.402Z,1010.36
2023-03-01T11:41:25.396Z,1010.31
2023-03-01T11:42:25.410Z,1010.34
2023-03-01T11:43:25.367Z,1010.28
2023-03-01T11:44:25.380Z,1010.22
2023-03-01T11:45:25.346Z,1010.17
2023-03-01T11:46:25.499Z,1010.16
2023-03-01T11:47:30.587Z,1010.15
2023-03-01T11:48:25.341Z,1010.17
2023-03-01T11:49:25.296Z,1010.18
2023-03-01T11:50:25.287Z,1010.22
2023-03-01T11:51:25.274Z,1010.20
2023-03-01T11:52:25.272Z,1010.14
2023-03-01T11:53:25.264Z,1010.10
2023-03-01T11:54:25.267Z,1010.08
2023-03-01T11:55:25.232Z,1010.09
2023-03-01T11:56:25.217Z,1009.96
2023-03-01T11:57:34.131Z,1010.13
2023-03-01T11:58:30.224Z,1009.99
2023-03-01T11:59:25.187Z,1010.01
2023-03-01T12:00:25.196Z,1010.03
2023-03-01T12:01:25.174Z,1010.04
2023-03-01T12:02:25.246Z,1009.95
2023-03-01T12:03:25.142Z,1009.90
2023-03-01T12:04:25.151Z,1009.90
2023-03-01T12:05:25.127Z,1009.94